sensor_id;sensor_type;location;lat;lon;timestamp;P1;durP1;ratioP1;P2;durP2;ratioP2
12719;SDS011;6424;48.520;11.228;2024-03-02T00:01:11;17.97;;;15.20;;
12719;SDS011;6424;48.520;11.228;2024-03-02T00:03:55;17.70;;;15.00;;
12719;SDS011;6424;48.520;11.228;2024-03-02T00:06:39;16.17;;;14.43;;
12719;SDS011;6424;48.520;11.228;2024-03-02T00:09:23;17.67;;;15.63;;
12719;SDS011;6424;48.520;11.228;2024-03-02T00:12:07;17.33;;;15.17;;
12719;SDS011;6424;48.520;11.228;2024-03-02T00:14:52;17.23;;;15.43;;
12719;SDS011;6424;48.520;11.228;2024-03-02T00:17:36;17.27;;;15.37;;
12719;SDS011;6424;48.520;11.228;2024-03-02T00:20:24;17.07;;;15.27;;
12719;SDS011;6424;48.520;11.228;2024-03-02T00:23:13;16.73;;;14.97;;
12719;SDS011;6424;48.520;11.228;2024-03-02T00:25:59;18.80;;;16.27;;
12719;SDS011;6424;48.520;11.228;2024-03-02T00:28:44;18.60;;;16.60;;
12719;SDS011;6424;48.520;11.228;2024-03-02T00:31:29;18.07;;;16.13;;
12719;SDS011;6424;48.520;11.228;2024-03-02T00:34:13;20.87;;;17.13;;
12719;SDS011;6424;48.520;11.228;2024-03-02T00:37:01;19.57;;;16.70;;
12719;SDS011;6424;48.520;11.228;2024-03-02T00:39:48;19.07;;;16.07;;
12719;SDS011;6424;48.520;11.228;2024-03-02T00:42:33;20.33;;;17.03;;
12719;SDS011;6424;48.520;11.228;2024-03-02T00:45:17;18.57;;;16.37;;
12719;SDS011;6424;48.520;11.228;2024-03-02T00:48:02;19.23;;;15.87;;
12719;SDS011;6424;48.520;11.228;2024-03-02T00:50:50;19.73;;;16.67;;
12719;SDS011;6424;48.520;11.228;2024-03-02T00:53:36;18.87;;;16.03;;
12719;SDS011;6424;48.520;11.228;2024-03-02T00:56:20;18.27;;;15.93;;
12719;SDS011;6424;48.520;11.228;2024-03-02T00:59:05;17.00;;;14.67;;
12719;SDS011;6424;48.520;11.228;2024-03-02T01:01:49;15.90;;;14.17;;
12719;SDS011;6424;48.520;11.228;2024-03-02T01:04:34;17.20;;;15.20;;
12719;SDS011;6424;48.520;11.228;2024-03-02T01:07:18;17.97;;;15.10;;
12719;SDS011;6424;48.520;11.228;2024-03-02T01:10:03;16.27;;;14.57;;
12719;SDS011;6424;48.520;11.228;2024-03-02T01:12:47;18.73;;;16.60;;
12719;SDS011;6424;48.520;11.228;2024-03-02T01:15:31;19.70;;;16.70;;
12719;SDS011;6424;48.520;11.228;2024-03-02T01:18:16;17.73;;;15.43;;
12719;SDS011;6424;48.520;11.228;2024-03-02T01:21:01;16.23;;;14.43;;
12719;SDS011;6424;48.520;11.228;2024-03-02T01:23:45;19.30;;;16.00;;
12719;SDS011;6424;48.520;11.228;2024-03-02T01:26:30;19.17;;;15.67;;
12719;SDS011;6424;48.520;11.228;2024-03-02T01:29:15;17.00;;;15.20;;
12719;SDS011;6424;48.520;11.228;2024-03-02T01:31:59;20.47;;;16.00;;
12719;SDS011;6424;48.520;11.228;2024-03-02T01:34:43;19.73;;;15.87;;
12719;SDS011;6424;48.520;11.228;2024-03-02T01:37:27;18.93;;;16.10;;
12719;SDS011;6424;48.520;11.228;2024-03-02T01:40:12;19.13;;;16.07;;
12719;SDS011;6424;48.520;11.228;2024-03-02T01:42:56;17.60;;;15.27;;
12719;SDS011;6424;48.520;11.228;2024-03-02T01:45:44;19.73;;;16.23;;
12719;SDS011;6424;48.520;11.228;2024-03-02T01:48:28;18.63;;;16.50;;
12719;SDS011;6424;48.520;11.228;2024-03-02T01:51:12;21.73;;;16.87;;
12719;SDS011;6424;48.520;11.228;2024-03-02T01:53:57;18.73;;;16.73;;
12719;SDS011;6424;48.520;11.228;2024-03-02T01:56:41;20.73;;;17.17;;
12719;SDS011;6424;48.520;11.228;2024-03-02T01:59:26;19.13;;;16.70;;
12719;SDS011;6424;48.520;11.228;2024-03-02T02:02:11;23.53;;;17.43;;
12719;SDS011;6424;48.520;11.228;2024-03-02T02:04:55;21.10;;;16.23;;
12719;SDS011;6424;48.520;11.228;2024-03-02T02:07:40;20.00;;;16.90;;
12719;SDS011;6424;48.520;11.228;2024-03-02T02:10:25;20.80;;;16.97;;
12719;SDS011;6424;48.520;11.228;2024-03-02T02:13:09;20.60;;;16.73;;
12719;SDS011;6424;48.520;11.228;2024-03-02T02:15:54;19.87;;;17.53;;
12719;SDS011;6424;48.520;11.228;2024-03-02T02:18:38;21.50;;;17.43;;
12719;SDS011;6424;48.520;11.228;2024-03-02T02:21:22;20.37;;;16.63;;
12719;SDS011;6424;48.520;11.228;2024-03-02T02:24:07;19.97;;;16.90;;
12719;SDS011;6424;48.520;11.228;2024-03-02T02:26:51;19.93;;;16.73;;
12719;SDS011;6424;48.520;11.228;2024-03-02T02:29:35;21.30;;;16.43;;
12719;SDS011;6424;48.520;11.228;2024-03-02T02:32:20;18.57;;;16.57;;
12719;SDS011;6424;48.520;11.228;2024-03-02T02:35:04;19.50;;;17.13;;
12719;SDS011;6424;48.520;11.228;2024-03-02T02:37:49;21.73;;;17.60;;
12719;SDS011;6424;48.520;11.228;2024-03-02T02:40:35;21.23;;;18.07;;
12719;SDS011;6424;48.520;11.228;2024-03-02T02:43:19;21.33;;;18.17;;
12719;SDS011;6424;48.520;11.228;2024-03-02T02:46:03;19.67;;;17.57;;
12719;SDS011;6424;48.520;11.228;2024-03-02T02:48:48;20.93;;;18.00;;
12719;SDS011;6424;48.520;11.228;2024-03-02T02:51:32;21.77;;;17.90;;
12719;SDS011;6424;48.520;11.228;2024-03-02T02:54:17;22.37;;;18.30;;
12719;SDS011;6424;48.520;11.228;2024-03-02T02:57:01;22.00;;;18.93;;
12719;SDS011;6424;48.520;11.228;2024-03-02T02:59:46;24.17;;;18.27;;
12719;SDS011;6424;48.520;11.228;2024-03-02T03:02:31;22.40;;;18.60;;
12719;SDS011;6424;48.520;11.228;2024-03-02T03:05:15;21.63;;;18.63;;
12719;SDS011;6424;48.520;11.228;2024-03-02T03:08:00;22.00;;;19.07;;
12719;SDS011;6424;48.520;11.228;2024-03-02T03:10:44;20.43;;;17.87;;
12719;SDS011;6424;48.520;11.228;2024-03-02T03:13:28;23.20;;;18.57;;
12719;SDS011;6424;48.520;11.228;2024-03-02T03:16:13;19.37;;;16.37;;
12719;SDS011;6424;48.520;11.228;2024-03-02T03:18:58;21.90;;;18.77;;
12719;SDS011;6424;48.520;11.228;2024-03-02T03:21:43;21.87;;;18.03;;
12719;SDS011;6424;48.520;11.228;2024-03-02T03:24:27;20.27;;;17.10;;
12719;SDS011;6424;48.520;11.228;2024-03-02T03:27:11;21.13;;;18.13;;
12719;SDS011;6424;48.520;11.228;2024-03-02T03:29:56;22.23;;;18.47;;
12719;SDS011;6424;48.520;11.228;2024-03-02T03:32:40;21.30;;;17.90;;
12719;SDS011;6424;48.520;11.228;2024-03-02T03:35:24;19.90;;;17.73;;
12719;SDS011;6424;48.520;11.228;2024-03-02T03:38:08;21.17;;;18.40;;
12719;SDS011;6424;48.520;11.228;2024-03-02T03:40:52;18.83;;;16.73;;
12719;SDS011;6424;48.520;11.228;2024-03-02T03:43:36;18.93;;;16.50;;
12719;SDS011;6424;48.520;11.228;2024-03-02T03:46:21;24.57;;;19.20;;
12719;SDS011;6424;48.520;11.228;2024-03-02T03:49:05;20.17;;;17.57;;
12719;SDS011;6424;48.520;11.228;2024-03-02T03:51:49;22.70;;;18.37;;
12719;SDS011;6424;48.520;11.228;2024-03-02T03:54:33;22.20;;;19.17;;
12719;SDS011;6424;48.520;11.228;2024-03-02T03:57:18;23.03;;;19.63;;
12719;SDS011;6424;48.520;11.228;2024-03-02T04:00:03;21.17;;;17.87;;
12719;SDS011;6424;48.520;11.228;2024-03-02T04:02:48;20.23;;;17.47;;
12719;SDS011;6424;48.520;11.228;2024-03-02T04:05:33;18.50;;;16.37;;
12719;SDS011;6424;48.520;11.228;2024-03-02T04:08:17;20.00;;;17.40;;
12719;SDS011;6424;48.520;11.228;2024-03-02T04:11:01;22.10;;;18.73;;
12719;SDS011;6424;48.520;11.228;2024-03-02T04:13:46;20.83;;;18.03;;
12719;SDS011;6424;48.520;11.228;2024-03-02T04:16:31;20.07;;;17.77;;
12719;SDS011;6424;48.520;11.228;2024-03-02T04:19:15;20.33;;;18.17;;
12719;SDS011;6424;48.520;11.228;2024-03-02T04:21:59;21.97;;;17.77;;
12719;SDS011;6424;48.520;11.228;2024-03-02T04:24:43;23.10;;;17.00;;
12719;SDS011;6424;48.520;11.228;2024-03-02T04:27:27;21.40;;;18.30;;
12719;SDS011;6424;48.520;11.228;2024-03-02T04:30:11;21.00;;;18.03;;
12719;SDS011;6424;48.520;11.228;2024-03-02T04:32:55;22.37;;;18.43;;
12719;SDS011;6424;48.520;11.228;2024-03-02T04:35:40;23.93;;;20.07;;
12719;SDS011;6424;48.520;11.228;2024-03-02T04:38:24;24.77;;;21.53;;
12719;SDS011;6424;48.520;11.228;2024-03-02T04:41:08;26.37;;;21.27;;
12719;SDS011;6424;48.520;11.228;2024-03-02T04:43:52;24.77;;;20.77;;
12719;SDS011;6424;48.520;11.228;2024-03-02T04:46:37;25.27;;;21.47;;
12719;SDS011;6424;48.520;11.228;2024-03-02T04:49:21;23.43;;;20.30;;
12719;SDS011;6424;48.520;11.228;2024-03-02T04:52:05;24.80;;;20.90;;
12719;SDS011;6424;48.520;11.228;2024-03-02T04:54:50;24.13;;;20.47;;
12719;SDS011;6424;48.520;11.228;2024-03-02T04:57:57;21.63;;;18.63;;
12719;SDS011;6424;48.520;11.228;2024-03-02T05:00:42;21.53;;;17.97;;
12719;SDS011;6424;48.520;11.228;2024-03-02T05:03:30;21.13;;;18.83;;
12719;SDS011;6424;48.520;11.228;2024-03-02T05:06:14;20.33;;;17.63;;
12719;SDS011;6424;48.520;11.228;2024-03-02T05:08:58;20.17;;;17.03;;
12719;SDS011;6424;48.520;11.228;2024-03-02T05:11:43;22.17;;;18.03;;
12719;SDS011;6424;48.520;11.228;2024-03-02T05:14:36;19.33;;;17.30;;
12719;SDS011;6424;48.520;11.228;2024-03-02T05:17:22;18.83;;;16.13;;
12719;SDS011;6424;48.520;11.228;2024-03-02T05:20:06;65.57;;;38.33;;
12719;SDS011;6424;48.520;11.228;2024-03-02T05:22:54;42.40;;;28.13;;
12719;SDS011;6424;48.520;11.228;2024-03-02T05:25:39;30.20;;;23.03;;
12719;SDS011;6424;48.520;11.228;2024-03-02T05:28:23;29.57;;;21.30;;
12719;SDS011;6424;48.520;11.228;2024-03-02T05:31:10;25.00;;;19.87;;
12719;SDS011;6424;48.520;11.228;2024-03-02T05:33:55;22.63;;;19.50;;
12719;SDS011;6424;48.520;11.228;2024-03-02T05:36:40;22.90;;;18.23;;
12719;SDS011;6424;48.520;11.228;2024-03-02T05:39:24;21.43;;;18.57;;
12719;SDS011;6424;48.520;11.228;2024-03-02T05:42:09;25.20;;;20.33;;
12719;SDS011;6424;48.520;11.228;2024-03-02T05:44:54;24.57;;;19.27;;
12719;SDS011;6424;48.520;11.228;2024-03-02T05:47:38;23.53;;;19.63;;
12719;SDS011;6424;48.520;11.228;2024-03-02T05:50:23;21.67;;;17.90;;
12719;SDS011;6424;48.520;11.228;2024-03-02T05:53:07;23.07;;;17.93;;
12719;SDS011;6424;48.520;11.228;2024-03-02T05:55:51;22.93;;;18.00;;
12719;SDS011;6424;48.520;11.228;2024-03-02T05:58:38;26.60;;;20.27;;
12719;SDS011;6424;48.520;11.228;2024-03-02T06:01:47;25.83;;;21.23;;
12719;SDS011;6424;48.520;11.228;2024-03-02T06:04:34;26.87;;;21.93;;
12719;SDS011;6424;48.520;11.228;2024-03-02T06:07:17;29.50;;;23.43;;
12719;SDS011;6424;48.520;11.228;2024-03-02T06:10:02;31.87;;;24.90;;
12719;SDS011;6424;48.520;11.228;2024-03-02T06:12:47;30.53;;;24.03;;
12719;SDS011;6424;48.520;11.228;2024-03-02T06:15:31;30.37;;;24.27;;
12719;SDS011;6424;48.520;11.228;2024-03-02T06:18:16;32.87;;;24.90;;
12719;SDS011;6424;48.520;11.228;2024-03-02T06:21:00;30.63;;;25.03;;
12719;SDS011;6424;48.520;11.228;2024-03-02T06:23:47;32.03;;;25.67;;
12719;SDS011;6424;48.520;11.228;2024-03-02T06:26:31;32.43;;;25.40;;
12719;SDS011;6424;48.520;11.228;2024-03-02T06:29:16;27.80;;;23.47;;
12719;SDS011;6424;48.520;11.228;2024-03-02T06:32:00;32.63;;;25.37;;
12719;SDS011;6424;48.520;11.228;2024-03-02T06:34:44;31.87;;;25.33;;
12719;SDS011;6424;48.520;11.228;2024-03-02T06:37:28;35.23;;;29.03;;
12719;SDS011;6424;48.520;11.228;2024-03-02T06:40:13;34.33;;;26.77;;
12719;SDS011;6424;48.520;11.228;2024-03-02T06:42:57;31.30;;;25.47;;
12719;SDS011;6424;48.520;11.228;2024-03-02T06:45:42;27.67;;;23.60;;
12719;SDS011;6424;48.520;11.228;2024-03-02T06:48:27;29.50;;;23.63;;
12719;SDS011;6424;48.520;11.228;2024-03-02T06:51:13;28.30;;;23.77;;
12719;SDS011;6424;48.520;11.228;2024-03-02T06:53:59;26.90;;;22.77;;
12719;SDS011;6424;48.520;11.228;2024-03-02T06:56:44;25.37;;;21.33;;
12719;SDS011;6424;48.520;11.228;2024-03-02T06:59:28;23.77;;;20.57;;
12719;SDS011;6424;48.520;11.228;2024-03-02T07:02:13;23.37;;;20.87;;
12719;SDS011;6424;48.520;11.228;2024-03-02T07:04:57;23.93;;;20.10;;
12719;SDS011;6424;48.520;11.228;2024-03-02T07:07:41;22.43;;;19.23;;
12719;SDS011;6424;48.520;11.228;2024-03-02T07:10:25;26.40;;;21.47;;
12719;SDS011;6424;48.520;11.228;2024-03-02T07:13:09;29.57;;;24.63;;
12719;SDS011;6424;48.520;11.228;2024-03-02T07:15:54;29.43;;;24.87;;
12719;SDS011;6424;48.520;11.228;2024-03-02T07:18:58;28.73;;;24.10;;
12719;SDS011;6424;48.520;11.228;2024-03-02T07:21:43;24.73;;;20.37;;
12719;SDS011;6424;48.520;11.228;2024-03-02T07:24:27;22.87;;;20.07;;
12719;SDS011;6424;48.520;11.228;2024-03-02T07:27:12;18.37;;;16.37;;
12719;SDS011;6424;48.520;11.228;2024-03-02T07:29:57;18.87;;;16.87;;
12719;SDS011;6424;48.520;11.228;2024-03-02T07:32:41;20.73;;;17.50;;
12719;SDS011;6424;48.520;11.228;2024-03-02T07:35:29;18.17;;;16.03;;
12719;SDS011;6424;48.520;11.228;2024-03-02T07:38:15;17.40;;;15.57;;
12719;SDS011;6424;48.520;11.228;2024-03-02T07:40:59;17.13;;;14.93;;
12719;SDS011;6424;48.520;11.228;2024-03-02T07:43:44;16.43;;;14.73;;
12719;SDS011;6424;48.520;11.228;2024-03-02T07:46:29;18.40;;;16.27;;
12719;SDS011;6424;48.520;11.228;2024-03-02T07:49:13;16.40;;;14.70;;
12719;SDS011;6424;48.520;11.228;2024-03-02T07:51:57;16.97;;;15.27;;
12719;SDS011;6424;48.520;11.228;2024-03-02T07:54:42;16.70;;;15.00;;
12719;SDS011;6424;48.520;11.228;2024-03-02T07:57:26;16.30;;;14.10;;
12719;SDS011;6424;48.520;11.228;2024-03-02T08:00:10;17.53;;;15.10;;
12719;SDS011;6424;48.520;11.228;2024-03-02T08:02:55;15.60;;;14.00;;
12719;SDS011;6424;48.520;11.228;2024-03-02T08:05:40;18.37;;;16.57;;
12719;SDS011;6424;48.520;11.228;2024-03-02T08:08:24;17.50;;;15.60;;
12719;SDS011;6424;48.520;11.228;2024-03-02T08:11:08;16.00;;;14.30;;
12719;SDS011;6424;48.520;11.228;2024-03-02T08:13:53;16.33;;;14.57;;
12719;SDS011;6424;48.520;11.228;2024-03-02T08:16:38;15.17;;;13.57;;
12719;SDS011;6424;48.520;11.228;2024-03-02T08:19:23;15.13;;;13.63;;
12719;SDS011;6424;48.520;11.228;2024-03-02T08:22:08;19.33;;;15.87;;
12719;SDS011;6424;48.520;11.228;2024-03-02T08:24:53;19.10;;;16.97;;
12719;SDS011;6424;48.520;11.228;2024-03-02T08:27:39;16.70;;;14.90;;
12719;SDS011;6424;48.520;11.228;2024-03-02T08:30:24;17.93;;;16.03;;
12719;SDS011;6424;48.520;11.228;2024-03-02T08:33:08;15.97;;;14.37;;
12719;SDS011;6424;48.520;11.228;2024-03-02T08:35:52;15.50;;;13.77;;
12719;SDS011;6424;48.520;11.228;2024-03-02T08:38:36;14.77;;;13.27;;
12719;SDS011;6424;48.520;11.228;2024-03-02T08:41:21;15.40;;;13.37;;
12719;SDS011;6424;48.520;11.228;2024-03-02T08:44:06;14.87;;;13.27;;
12719;SDS011;6424;48.520;11.228;2024-03-02T08:46:50;15.93;;;14.43;;
12719;SDS011;6424;48.520;11.228;2024-03-02T08:49:34;14.73;;;13.23;;
12719;SDS011;6424;48.520;11.228;2024-03-02T08:52:19;15.27;;;13.60;;
12719;SDS011;6424;48.520;11.228;2024-03-02T08:55:03;15.73;;;13.90;;
12719;SDS011;6424;48.520;11.228;2024-03-02T08:57:48;18.13;;;14.50;;
12719;SDS011;6424;48.520;11.228;2024-03-02T09:00:34;15.87;;;14.17;;
12719;SDS011;6424;48.520;11.228;2024-03-02T09:03:18;13.77;;;12.30;;
12719;SDS011;6424;48.520;11.228;2024-03-02T09:06:02;15.73;;;13.57;;
12719;SDS011;6424;48.520;11.228;2024-03-02T09:08:47;15.37;;;13.00;;
12719;SDS011;6424;48.520;11.228;2024-03-02T09:11:33;15.40;;;12.57;;
12719;SDS011;6424;48.520;11.228;2024-03-02T09:14:18;13.73;;;12.33;;
12719;SDS011;6424;48.520;11.228;2024-03-02T09:17:03;17.17;;;14.63;;
12719;SDS011;6424;48.520;11.228;2024-03-02T09:19:47;17.57;;;14.73;;
12719;SDS011;6424;48.520;11.228;2024-03-02T09:22:32;16.23;;;13.13;;
12719;SDS011;6424;48.520;11.228;2024-03-02T09:25:16;16.17;;;13.87;;
12719;SDS011;6424;48.520;11.228;2024-03-02T09:28:01;18.33;;;13.37;;
12719;SDS011;6424;48.520;11.228;2024-03-02T09:30:46;16.10;;;13.90;;
12719;SDS011;6424;48.520;11.228;2024-03-02T09:33:30;15.07;;;13.20;;
12719;SDS011;6424;48.520;11.228;2024-03-02T09:36:18;15.63;;;13.17;;
12719;SDS011;6424;48.520;11.228;2024-03-02T09:39:03;16.20;;;13.57;;
12719;SDS011;6424;48.520;11.228;2024-03-02T09:41:47;15.10;;;13.03;;
12719;SDS011;6424;48.520;11.228;2024-03-02T09:44:32;15.43;;;13.73;;
12719;SDS011;6424;48.520;11.228;2024-03-02T09:47:17;16.07;;;14.00;;
12719;SDS011;6424;48.520;11.228;2024-03-02T09:50:17;16.13;;;13.77;;
12719;SDS011;6424;48.520;11.228;2024-03-02T09:53:02;16.33;;;13.70;;
12719;SDS011;6424;48.520;11.228;2024-03-02T09:55:47;13.20;;;10.90;;
12719;SDS011;6424;48.520;11.228;2024-03-02T09:58:31;14.83;;;12.73;;
12719;SDS011;6424;48.520;11.228;2024-03-02T10:01:16;12.93;;;11.53;;
12719;SDS011;6424;48.520;11.228;2024-03-02T10:04:00;12.97;;;11.50;;
12719;SDS011;6424;48.520;11.228;2024-03-02T10:06:46;13.43;;;11.43;;
12719;SDS011;6424;48.520;11.228;2024-03-02T10:09:30;13.43;;;11.20;;
12719;SDS011;6424;48.520;11.228;2024-03-02T10:12:15;11.97;;;10.60;;
12719;SDS011;6424;48.520;11.228;2024-03-02T10:15:04;11.27;;;9.97;;
12719;SDS011;6424;48.520;11.228;2024-03-02T10:17:49;13.40;;;10.80;;
12719;SDS011;6424;48.520;11.228;2024-03-02T10:20:33;14.37;;;12.37;;
12719;SDS011;6424;48.520;11.228;2024-03-02T10:23:18;12.10;;;10.07;;
12719;SDS011;6424;48.520;11.228;2024-03-02T10:26:11;11.93;;;8.67;;
12719;SDS011;6424;48.520;11.228;2024-03-02T10:29:01;14.60;;;10.90;;
12719;SDS011;6424;48.520;11.228;2024-03-02T10:31:46;13.47;;;10.73;;
12719;SDS011;6424;48.520;11.228;2024-03-02T10:34:30;11.97;;;9.60;;
12719;SDS011;6424;48.520;11.228;2024-03-02T10:37:15;13.83;;;10.90;;
12719;SDS011;6424;48.520;11.228;2024-03-02T10:40:07;13.70;;;11.63;;
12719;SDS011;6424;48.520;11.228;2024-03-02T10:42:54;14.90;;;10.83;;
12719;SDS011;6424;48.520;11.228;2024-03-02T10:45:39;12.90;;;11.03;;
12719;SDS011;6424;48.520;11.228;2024-03-02T10:48:24;12.07;;;10.77;;
12719;SDS011;6424;48.520;11.228;2024-03-02T10:51:10;13.20;;;10.80;;
12719;SDS011;6424;48.520;11.228;2024-03-02T10:53:55;15.40;;;12.27;;
12719;SDS011;6424;48.520;11.228;2024-03-02T10:56:40;17.10;;;12.97;;
12719;SDS011;6424;48.520;11.228;2024-03-02T11:02:12;17.60;;;13.93;;
12719;SDS011;6424;48.520;11.228;2024-03-02T11:04:59;18.27;;;14.13;;
12719;SDS011;6424;48.520;11.228;2024-03-02T11:07:50;17.97;;;12.43;;
12719;SDS011;6424;48.520;11.228;2024-03-02T11:10:37;20.10;;;15.50;;
12719;SDS011;6424;48.520;11.228;2024-03-02T11:13:32;23.37;;;16.93;;
12719;SDS011;6424;48.520;11.228;2024-03-02T11:16:31;20.87;;;16.10;;
12719;SDS011;6424;48.520;11.228;2024-03-02T11:19:20;20.87;;;16.43;;
12719;SDS011;6424;48.520;11.228;2024-03-02T11:22:06;18.80;;;16.03;;
12719;SDS011;6424;48.520;11.228;2024-03-02T11:24:52;22.10;;;16.97;;
12719;SDS011;6424;48.520;11.228;2024-03-02T11:33:22;21.83;;;16.30;;
12719;SDS011;6424;48.520;11.228;2024-03-02T11:36:08;19.23;;;15.17;;
12719;SDS011;6424;48.520;11.228;2024-03-02T11:38:53;21.60;;;15.83;;
12719;SDS011;6424;48.520;11.228;2024-03-02T11:41:39;18.93;;;15.00;;
12719;SDS011;6424;48.520;11.228;2024-03-02T11:44:29;19.50;;;15.50;;
12719;SDS011;6424;48.520;11.228;2024-03-02T11:47:17;18.67;;;13.73;;
12719;SDS011;6424;48.520;11.228;2024-03-02T11:50:02;19.87;;;15.47;;
12719;SDS011;6424;48.520;11.228;2024-03-02T11:52:50;20.07;;;15.17;;
12719;SDS011;6424;48.520;11.228;2024-03-02T11:55:35;19.73;;;14.80;;
12719;SDS011;6424;48.520;11.228;2024-03-02T11:58:23;19.00;;;15.30;;
12719;SDS011;6424;48.520;11.228;2024-03-02T12:01:10;22.13;;;15.87;;
12719;SDS011;6424;48.520;11.228;2024-03-02T12:03:57;19.03;;;14.97;;
12719;SDS011;6424;48.520;11.228;2024-03-02T12:06:43;19.47;;;15.10;;
12719;SDS011;6424;48.520;11.228;2024-03-02T12:09:30;18.07;;;14.23;;
12719;SDS011;6424;48.520;11.228;2024-03-02T12:12:14;17.87;;;13.67;;
12719;SDS011;6424;48.520;11.228;2024-03-02T12:15:02;20.10;;;15.60;;
12719;SDS011;6424;48.520;11.228;2024-03-02T12:17:47;20.50;;;16.00;;
12719;SDS011;6424;48.520;11.228;2024-03-02T12:20:32;20.13;;;15.37;;
12719;SDS011;6424;48.520;11.228;2024-03-02T12:23:19;18.40;;;15.33;;
12719;SDS011;6424;48.520;11.228;2024-03-02T12:26:04;19.63;;;15.53;;
12719;SDS011;6424;48.520;11.228;2024-03-02T12:28:48;21.23;;;15.70;;
12719;SDS011;6424;48.520;11.228;2024-03-02T12:31:32;18.73;;;14.77;;
12719;SDS011;6424;48.520;11.228;2024-03-02T12:34:18;18.80;;;14.53;;
12719;SDS011;6424;48.520;11.228;2024-03-02T12:37:03;18.80;;;15.33;;
12719;SDS011;6424;48.520;11.228;2024-03-02T12:39:47;23.00;;;15.27;;
12719;SDS011;6424;48.520;11.228;2024-03-02T12:42:31;20.17;;;16.53;;
12719;SDS011;6424;48.520;11.228;2024-03-02T12:45:16;22.73;;;17.07;;
12719;SDS011;6424;48.520;11.228;2024-03-02T12:48:07;20.00;;;15.77;;
12719;SDS011;6424;48.520;11.228;2024-03-02T12:50:51;22.87;;;17.67;;
12719;SDS011;6424;48.520;11.228;2024-03-02T12:53:36;19.77;;;14.27;;
12719;SDS011;6424;48.520;11.228;2024-03-02T12:56:20;19.23;;;15.67;;
12719;SDS011;6424;48.520;11.228;2024-03-02T12:59:05;19.33;;;14.77;;
12719;SDS011;6424;48.520;11.228;2024-03-02T13:01:50;24.40;;;16.27;;
12719;SDS011;6424;48.520;11.228;2024-03-02T13:04:35;19.03;;;15.47;;
12719;SDS011;6424;48.520;11.228;2024-03-02T13:07:20;16.10;;;13.13;;
12719;SDS011;6424;48.520;11.228;2024-03-02T13:10:08;17.63;;;12.43;;
12719;SDS011;6424;48.520;11.228;2024-03-02T13:12:53;18.33;;;14.87;;
12719;SDS011;6424;48.520;11.228;2024-03-02T13:15:37;20.57;;;16.57;;
12719;SDS011;6424;48.520;11.228;2024-03-02T13:18:22;20.57;;;16.93;;
12719;SDS011;6424;48.520;11.228;2024-03-02T13:21:08;21.07;;;16.90;;
12719;SDS011;6424;48.520;11.228;2024-03-02T13:23:53;20.30;;;16.40;;
12719;SDS011;6424;48.520;11.228;2024-03-02T13:26:37;20.50;;;15.90;;
12719;SDS011;6424;48.520;11.228;2024-03-02T13:29:21;20.53;;;16.17;;
12719;SDS011;6424;48.520;11.228;2024-03-02T13:32:06;19.93;;;15.63;;
12719;SDS011;6424;48.520;11.228;2024-03-02T13:34:50;20.40;;;15.67;;
12719;SDS011;6424;48.520;11.228;2024-03-02T13:37:35;20.43;;;15.43;;
12719;SDS011;6424;48.520;11.228;2024-03-02T13:40:19;16.40;;;13.20;;
12719;SDS011;6424;48.520;11.228;2024-03-02T13:43:04;14.83;;;12.67;;
12719;SDS011;6424;48.520;11.228;2024-03-02T13:45:49;17.60;;;13.77;;
12719;SDS011;6424;48.520;11.228;2024-03-02T13:48:35;14.87;;;11.93;;
12719;SDS011;6424;48.520;11.228;2024-03-02T13:51:20;14.87;;;12.60;;
12719;SDS011;6424;48.520;11.228;2024-03-02T13:54:04;16.00;;;11.97;;
12719;SDS011;6424;48.520;11.228;2024-03-02T13:56:49;15.47;;;12.30;;
12719;SDS011;6424;48.520;11.228;2024-03-02T13:59:34;13.87;;;10.90;;
12719;SDS011;6424;48.520;11.228;2024-03-02T14:02:19;16.40;;;12.20;;
12719;SDS011;6424;48.520;11.228;2024-03-02T14:05:06;12.70;;;10.73;;
12719;SDS011;6424;48.520;11.228;2024-03-02T14:07:55;13.53;;;10.30;;
12719;SDS011;6424;48.520;11.228;2024-03-02T14:10:39;12.63;;;9.70;;
12719;SDS011;6424;48.520;11.228;2024-03-02T14:13:24;13.23;;;9.77;;
12719;SDS011;6424;48.520;11.228;2024-03-02T14:16:10;15.43;;;11.50;;
12719;SDS011;6424;48.520;11.228;2024-03-02T14:18:55;13.83;;;10.80;;
12719;SDS011;6424;48.520;11.228;2024-03-02T14:21:40;13.47;;;8.90;;
12719;SDS011;6424;48.520;11.228;2024-03-02T14:24:24;12.50;;;10.27;;
12719;SDS011;6424;48.520;11.228;2024-03-02T14:27:09;12.53;;;10.10;;
12719;SDS011;6424;48.520;11.228;2024-03-02T14:29:54;13.13;;;10.43;;
12719;SDS011;6424;48.520;11.228;2024-03-02T14:32:38;12.37;;;10.60;;
12719;SDS011;6424;48.520;11.228;2024-03-02T14:35:23;11.50;;;9.53;;
12719;SDS011;6424;48.520;11.228;2024-03-02T14:38:07;13.23;;;10.20;;
12719;SDS011;6424;48.520;11.228;2024-03-02T14:40:52;14.17;;;10.73;;
12719;SDS011;6424;48.520;11.228;2024-03-02T14:43:36;13.63;;;10.37;;
12719;SDS011;6424;48.520;11.228;2024-03-02T14:46:21;13.17;;;11.03;;
12719;SDS011;6424;48.520;11.228;2024-03-02T14:49:05;14.90;;;11.63;;
12719;SDS011;6424;48.520;11.228;2024-03-02T14:51:49;15.00;;;11.47;;
12719;SDS011;6424;48.520;11.228;2024-03-02T14:54:33;15.00;;;11.70;;
12719;SDS011;6424;48.520;11.228;2024-03-02T14:57:19;16.73;;;11.70;;
12719;SDS011;6424;48.520;11.228;2024-03-02T15:00:03;16.33;;;11.40;;
12719;SDS011;6424;48.520;11.228;2024-03-02T15:02:51;15.23;;;11.27;;
12719;SDS011;6424;48.520;11.228;2024-03-02T15:05:35;15.13;;;11.90;;
12719;SDS011;6424;48.520;11.228;2024-03-02T15:08:20;16.57;;;12.03;;
12719;SDS011;6424;48.520;11.228;2024-03-02T15:11:04;14.63;;;11.37;;
12719;SDS011;6424;48.520;11.228;2024-03-02T15:13:48;13.03;;;11.50;;
12719;SDS011;6424;48.520;11.228;2024-03-02T15:16:32;13.93;;;11.43;;
12719;SDS011;6424;48.520;11.228;2024-03-02T15:19:17;11.83;;;10.57;;
12719;SDS011;6424;48.520;11.228;2024-03-02T15:22:01;13.97;;;11.27;;
12719;SDS011;6424;48.520;11.228;2024-03-02T15:24:46;13.80;;;11.67;;
12719;SDS011;6424;48.520;11.228;2024-03-02T15:27:30;14.67;;;11.63;;
12719;SDS011;6424;48.520;11.228;2024-03-02T15:30:15;15.73;;;12.17;;
12719;SDS011;6424;48.520;11.228;2024-03-02T15:33:00;17.23;;;13.53;;
12719;SDS011;6424;48.520;11.228;2024-03-02T15:35:46;17.10;;;13.90;;
12719;SDS011;6424;48.520;11.228;2024-03-02T15:38:30;19.10;;;13.40;;
12719;SDS011;6424;48.520;11.228;2024-03-02T15:41:16;18.77;;;14.10;;
12719;SDS011;6424;48.520;11.228;2024-03-02T15:44:00;19.53;;;14.80;;
12719;SDS011;6424;48.520;11.228;2024-03-02T15:46:45;16.37;;;13.67;;
12719;SDS011;6424;48.520;11.228;2024-03-02T15:49:29;17.20;;;13.40;;
12719;SDS011;6424;48.520;11.228;2024-03-02T15:52:15;16.90;;;12.90;;
12719;SDS011;6424;48.520;11.228;2024-03-02T15:55:02;15.43;;;12.87;;
12719;SDS011;6424;48.520;11.228;2024-03-02T15:57:48;20.20;;;13.43;;
12719;SDS011;6424;48.520;11.228;2024-03-02T16:00:33;19.00;;;13.57;;
12719;SDS011;6424;48.520;11.228;2024-03-02T16:03:19;17.77;;;12.30;;
12719;SDS011;6424;48.520;11.228;2024-03-02T16:06:04;17.90;;;13.47;;
12719;SDS011;6424;48.520;11.228;2024-03-02T16:08:48;16.13;;;13.20;;
12719;SDS011;6424;48.520;11.228;2024-03-02T16:11:33;17.67;;;13.53;;
12719;SDS011;6424;48.520;11.228;2024-03-02T16:14:19;17.33;;;13.03;;